Terminal Aerodrome Forecast
Issued by NWS

Home | Current Version | Previous Version | Text Only | Print | Product List | Glossary On
Versions: 1 2 3 4 5 6 7 8 9 10 11 12 13 14 15
000
FTUS43 KEAX 031332 AAA
TAFSTJ
TAF AMD
KSTJ 031332Z 0314/0412 18007KT P6SM VCSH BKN120
      TEMPO 0314/0315 -RA
     FM031600 19012G19KT P6SM SCT100
     FM040000 17005KT P6SM FEW100=

USA.gov is the U.S. government's official web portal to all federal, state and local government web resources and services.